sensor_id;sensor_type;location;lat;lon;timestamp;pressure;altitude;pressure_sealevel;temperature;humidity
19510;BME280;9896;42.486;26.506;2023-02-11T00:01:26;101765.53;;;-4.44;87.34
19510;BME280;9896;42.486;26.506;2023-02-11T00:03:52;101779.63;;;-4.46;87.93
19510;BME280;9896;42.486;26.506;2023-02-11T00:06:17;101779.91;;;-4.52;88.53
19510;BME280;9896;42.486;26.506;2023-02-11T00:08:43;101772.53;;;-4.64;89.30
19510;BME280;9896;42.486;26.506;2023-02-11T00:11:12;101785.25;;;-4.55;89.08
19510;BME280;9896;42.486;26.506;2023-02-11T00:13:39;101781.66;;;-4.53;89.21
19510;BME280;9896;42.486;26.506;2023-02-11T00:16:06;101783.81;;;-4.42;89.45
19510;BME280;9896;42.486;26.506;2023-02-11T00:18:32;101790.38;;;-4.52;89.94
19510;BME280;9896;42.486;26.506;2023-02-11T00:20:58;101779.16;;;-4.56;89.66
19510;BME280;9896;42.486;26.506;2023-02-11T00:23:23;101782.75;;;-4.58;89.31
19510;BME280;9896;42.486;26.506;2023-02-11T00:25:49;101775.94;;;-4.62;88.81
19510;BME280;9896;42.486;26.506;2023-02-11T00:28:14;101775.94;;;-4.62;88.75
19510;BME280;9896;42.486;26.506;2023-02-11T00:30:40;101769.34;;;-4.51;86.82
19510;BME280;9896;42.486;26.506;2023-02-11T00:33:06;101766.88;;;-4.54;87.24
19510;BME280;9896;42.486;26.506;2023-02-11T00:35:31;101761.50;;;-4.51;87.00
19510;BME280;9896;42.486;26.506;2023-02-11T00:37:57;101760.09;;;-4.59;87.48
19510;BME280;9896;42.486;26.506;2023-02-11T00:40:23;101742.63;;;-4.79;87.46
19510;BME280;9896;42.486;26.506;2023-02-11T00:42:48;101755.72;;;-4.79;88.04
19510;BME280;9896;42.486;26.506;2023-02-11T00:45:14;101759.25;;;-4.80;88.07
19510;BME280;9896;42.486;26.506;2023-02-11T00:47:40;101762.44;;;-4.94;88.98
19510;BME280;9896;42.486;26.506;2023-02-11T00:50:05;101758.78;;;-4.90;88.31
19510;BME280;9896;42.486;26.506;2023-02-11T00:52:33;101764.66;;;-4.85;87.96
19510;BME280;9896;42.486;26.506;2023-02-11T00:54:59;101757.78;;;-4.87;87.79
19510;BME280;9896;42.486;26.506;2023-02-11T00:57:24;101755.44;;;-4.93;87.60
19510;BME280;9896;42.486;26.506;2023-02-11T00:59:50;101755.13;;;-4.86;87.53
19510;BME280;9896;42.486;26.506;2023-02-11T01:02:15;101768.53;;;-4.93;87.93
19510;BME280;9896;42.486;26.506;2023-02-11T01:04:42;101770.34;;;-4.95;87.99
19510;BME280;9896;42.486;26.506;2023-02-11T01:07:08;101763.53;;;-4.99;87.74
19510;BME280;9896;42.486;26.506;2023-02-11T01:09:37;101756.59;;;-5.00;87.45
19510;BME280;9896;42.486;26.506;2023-02-11T01:12:03;101760.50;;;-5.10;88.20
19510;BME280;9896;42.486;26.506;2023-02-11T01:14:28;101754.16;;;-5.05;87.85
19510;BME280;9896;42.486;26.506;2023-02-11T01:16:54;101757.09;;;-5.12;87.83
19510;BME280;9896;42.486;26.506;2023-02-11T01:19:19;101757.41;;;-5.20;88.16
19510;BME280;9896;42.486;26.506;2023-02-11T01:21:45;101754.72;;;-5.19;88.50
19510;BME280;9896;42.486;26.506;2023-02-11T01:24:10;101758.38;;;-5.23;88.35
19510;BME280;9896;42.486;26.506;2023-02-11T01:26:36;101738.00;;;-5.36;88.63
19510;BME280;9896;42.486;26.506;2023-02-11T01:29:02;101726.13;;;-5.45;88.59
19510;BME280;9896;42.486;26.506;2023-02-11T01:31:29;101753.19;;;-5.24;88.93
19510;BME280;9896;42.486;26.506;2023-02-11T01:33:54;101747.47;;;-5.34;89.02
19510;BME280;9896;42.486;26.506;2023-02-11T01:36:20;101733.94;;;-5.43;89.06
19510;BME280;9896;42.486;26.506;2023-02-11T01:38:45;101746.09;;;-5.42;89.58
19510;BME280;9896;42.486;26.506;2023-02-11T01:41:12;101732.19;;;-5.43;89.31
19510;BME280;9896;42.486;26.506;2023-02-11T01:43:45;101740.91;;;-5.44;89.76
19510;BME280;9896;42.486;26.506;2023-02-11T01:46:20;101734.09;;;-5.48;89.72
19510;BME280;9896;42.486;26.506;2023-02-11T01:48:58;101736.38;;;-5.62;90.46
19510;BME280;9896;42.486;26.506;2023-02-11T01:51:46;101739.75;;;-5.58;90.71
19510;BME280;9896;42.486;26.506;2023-02-11T01:54:16;101736.22;;;-5.57;90.35
19510;BME280;9896;42.486;26.506;2023-02-11T01:57:03;101733.84;;;-5.64;90.69
19510;BME280;9896;42.486;26.506;2023-02-11T02:00:10;101746.06;;;-5.64;91.07
19510;BME280;9896;42.486;26.506;2023-02-11T02:05:54;101738.59;;;-5.51;90.63
19510;BME280;9896;42.486;26.506;2023-02-11T02:10:59;101728.75;;;-5.45;89.86
19510;BME280;9896;42.486;26.506;2023-02-11T02:13:27;101719.59;;;-5.55;90.03
19510;BME280;9896;42.486;26.506;2023-02-11T02:16:03;101741.09;;;-5.48;89.66
19510;BME280;9896;42.486;26.506;2023-02-11T02:18:39;101739.06;;;-5.42;89.47
19510;BME280;9896;42.486;26.506;2023-02-11T02:29:37;101731.06;;;-5.59;90.75
19510;BME280;9896;42.486;26.506;2023-02-11T02:39:54;101724.22;;;-5.85;91.85
19510;BME280;9896;42.486;26.506;2023-02-11T02:42:21;101730.91;;;-5.78;91.71
19510;BME280;9896;42.486;26.506;2023-02-11T02:44:51;101730.97;;;-5.79;92.27
19510;BME280;9896;42.486;26.506;2023-02-11T02:47:18;101727.88;;;-5.89;93.34
19510;BME280;9896;42.486;26.506;2023-02-11T02:49:44;101728.94;;;-5.94;93.55
19510;BME280;9896;42.486;26.506;2023-02-11T03:01:06;101734.00;;;-6.61;93.91
19510;BME280;9896;42.486;26.506;2023-02-11T03:06:26;101734.31;;;-6.70;94.60
19510;BME280;9896;42.486;26.506;2023-02-11T03:11:39;101716.91;;;-6.96;94.11
19510;BME280;9896;42.486;26.506;2023-02-11T03:14:07;101728.53;;;-6.80;93.83
19510;BME280;9896;42.486;26.506;2023-02-11T03:16:35;101723.41;;;-6.81;94.06
19510;BME280;9896;42.486;26.506;2023-02-11T03:19:24;101734.38;;;-6.98;95.47
19510;BME280;9896;42.486;26.506;2023-02-11T03:21:52;101733.13;;;-6.86;94.50
19510;BME280;9896;42.486;26.506;2023-02-11T03:24:30;101742.72;;;-6.88;94.03
19510;BME280;9896;42.486;26.506;2023-02-11T03:27:08;101735.38;;;-7.02;95.93
19510;BME280;9896;42.486;26.506;2023-02-11T03:32:25;101734.16;;;-6.92;95.22
19510;BME280;9896;42.486;26.506;2023-02-11T03:37:42;101706.13;;;-7.10;94.42
19510;BME280;9896;42.486;26.506;2023-02-11T03:40:15;101733.16;;;-6.88;94.37
19510;BME280;9896;42.486;26.506;2023-02-11T03:42:57;101730.31;;;-7.07;94.56
19510;BME280;9896;42.486;26.506;2023-02-11T03:45:24;101732.78;;;-7.02;94.18
19510;BME280;9896;42.486;26.506;2023-02-11T03:47:54;101731.19;;;-7.06;94.59
19510;BME280;9896;42.486;26.506;2023-02-11T03:50:22;101730.00;;;-7.24;95.53
19510;BME280;9896;42.486;26.506;2023-02-11T03:52:49;101725.00;;;-7.30;94.47
19510;BME280;9896;42.486;26.506;2023-02-11T03:55:18;101718.47;;;-7.43;95.18
19510;BME280;9896;42.486;26.506;2023-02-11T03:57:44;101715.75;;;-7.66;96.46
19510;BME280;9896;42.486;26.506;2023-02-11T04:00:11;101726.16;;;-7.38;96.47
19510;BME280;9896;42.486;26.506;2023-02-11T04:02:37;101723.69;;;-7.17;94.53
19510;BME280;9896;42.486;26.506;2023-02-11T04:05:05;101723.47;;;-7.09;94.40
19510;BME280;9896;42.486;26.506;2023-02-11T04:07:31;101727.75;;;-7.34;94.46
19510;BME280;9896;42.486;26.506;2023-02-11T04:09:57;101727.03;;;-7.39;95.91
19510;BME280;9896;42.486;26.506;2023-02-11T04:12:22;101726.69;;;-7.29;96.39
19510;BME280;9896;42.486;26.506;2023-02-11T04:14:48;101734.00;;;-7.40;96.06
19510;BME280;9896;42.486;26.506;2023-02-11T04:17:14;101735.09;;;-7.47;96.65
19510;BME280;9896;42.486;26.506;2023-02-11T04:19:40;101722.09;;;-7.48;96.02
19510;BME280;9896;42.486;26.506;2023-02-11T04:22:05;101725.44;;;-7.43;96.76
19510;BME280;9896;42.486;26.506;2023-02-11T04:24:31;101738.03;;;-7.30;95.53
19510;BME280;9896;42.486;26.506;2023-02-11T04:26:57;101734.28;;;-7.49;97.03
19510;BME280;9896;42.486;26.506;2023-02-11T04:29:22;101737.09;;;-7.55;96.81
19510;BME280;9896;42.486;26.506;2023-02-11T04:31:48;101735.13;;;-7.48;97.06
19510;BME280;9896;42.486;26.506;2023-02-11T04:34:14;101729.81;;;-7.45;96.85
19510;BME280;9896;42.486;26.506;2023-02-11T04:36:40;101734.84;;;-7.39;96.24
19510;BME280;9896;42.486;26.506;2023-02-11T04:39:06;101732.66;;;-7.53;96.59
19510;BME280;9896;42.486;26.506;2023-02-11T04:41:31;101746.50;;;-7.51;96.91
19510;BME280;9896;42.486;26.506;2023-02-11T04:43:57;101746.06;;;-7.37;97.44
19510;BME280;9896;42.486;26.506;2023-02-11T04:46:23;101740.16;;;-7.42;97.87
19510;BME280;9896;42.486;26.506;2023-02-11T04:48:48;101729.41;;;-7.60;97.84
19510;BME280;9896;42.486;26.506;2023-02-11T04:51:14;101730.78;;;-7.76;99.32
19510;BME280;9896;42.486;26.506;2023-02-11T04:53:39;101731.13;;;-7.88;99.40
19510;BME280;9896;42.486;26.506;2023-02-11T04:56:05;101720.94;;;-7.66;99.84
19510;BME280;9896;42.486;26.506;2023-02-11T04:58:31;101711.03;;;-7.55;99.62
19510;BME280;9896;42.486;26.506;2023-02-11T05:01:07;101724.53;;;-7.42;98.75
19510;BME280;9896;42.486;26.506;2023-02-11T05:03:33;101719.50;;;-7.48;98.31
19510;BME280;9896;42.486;26.506;2023-02-11T05:05:59;101713.38;;;-7.46;97.99
19510;BME280;9896;42.486;26.506;2023-02-11T05:08:25;101707.59;;;-7.56;98.15
19510;BME280;9896;42.486;26.506;2023-02-11T05:10:50;101709.34;;;-7.56;98.59
19510;BME280;9896;42.486;26.506;2023-02-11T05:13:16;101707.53;;;-7.54;98.74
19510;BME280;9896;42.486;26.506;2023-02-11T05:15:41;101696.41;;;-7.59;99.62
19510;BME280;9896;42.486;26.506;2023-02-11T05:18:07;101705.75;;;-7.54;98.22
19510;BME280;9896;42.486;26.506;2023-02-11T05:20:32;101704.44;;;-7.39;98.60
19510;BME280;9896;42.486;26.506;2023-02-11T05:22:58;101713.25;;;-7.17;97.43
19510;BME280;9896;42.486;26.506;2023-02-11T05:25:23;101703.38;;;-7.33;97.60
19510;BME280;9896;42.486;26.506;2023-02-11T05:27:49;101706.09;;;-7.36;97.90
19510;BME280;9896;42.486;26.506;2023-02-11T05:30:15;101691.91;;;-7.54;97.88
19510;BME280;9896;42.486;26.506;2023-02-11T05:32:40;101709.84;;;-7.45;97.65
19510;BME280;9896;42.486;26.506;2023-02-11T05:35:06;101703.09;;;-7.50;96.90
19510;BME280;9896;42.486;26.506;2023-02-11T05:37:32;101690.09;;;-7.80;97.35
19510;BME280;9896;42.486;26.506;2023-02-11T05:39:59;101700.31;;;-8.02;99.64
19510;BME280;9896;42.486;26.506;2023-02-11T05:42:25;101707.09;;;-7.96;99.27
19510;BME280;9896;42.486;26.506;2023-02-11T05:44:50;101714.69;;;-7.90;99.08
19510;BME280;9896;42.486;26.506;2023-02-11T05:47:16;101701.97;;;-7.99;99.81
19510;BME280;9896;42.486;26.506;2023-02-11T05:49:41;101712.69;;;-8.10;99.23
19510;BME280;9896;42.486;26.506;2023-02-11T05:52:07;101714.41;;;-8.09;99.61
19510;BME280;9896;42.486;26.506;2023-02-11T05:54:32;101715.28;;;-8.10;99.68
19510;BME280;9896;42.486;26.506;2023-02-11T05:56:58;101716.50;;;-7.92;100.00
19510;BME280;9896;42.486;26.506;2023-02-11T05:59:23;101727.63;;;-8.16;100.00
19510;BME280;9896;42.486;26.506;2023-02-11T06:01:49;101728.50;;;-8.17;100.00
19510;BME280;9896;42.486;26.506;2023-02-11T06:04:15;101731.00;;;-8.13;100.00
19510;BME280;9896;42.486;26.506;2023-02-11T06:06:40;101727.41;;;-8.38;100.00
19510;BME280;9896;42.486;26.506;2023-02-11T06:09:06;101733.34;;;-8.33;100.00
19510;BME280;9896;42.486;26.506;2023-02-11T06:11:32;101730.59;;;-7.99;99.33
19510;BME280;9896;42.486;26.506;2023-02-11T06:13:57;101731.25;;;-7.91;98.14
19510;BME280;9896;42.486;26.506;2023-02-11T06:16:23;101738.13;;;-7.90;97.86
19510;BME280;9896;42.486;26.506;2023-02-11T06:18:48;101737.19;;;-7.87;98.06
19510;BME280;9896;42.486;26.506;2023-02-11T06:21:14;101729.25;;;-7.83;98.16
19510;BME280;9896;42.486;26.506;2023-02-11T06:23:40;101726.56;;;-7.80;96.98
19510;BME280;9896;42.486;26.506;2023-02-11T06:26:08;101729.44;;;-7.89;98.20
19510;BME280;9896;42.486;26.506;2023-02-11T06:28:39;101708.47;;;-7.84;96.92
19510;BME280;9896;42.486;26.506;2023-02-11T06:31:06;101722.47;;;-7.33;96.71
19510;BME280;9896;42.486;26.506;2023-02-11T06:33:32;101720.41;;;-7.77;95.91
19510;BME280;9896;42.486;26.506;2023-02-11T06:35:59;101712.06;;;-7.61;96.39
19510;BME280;9896;42.486;26.506;2023-02-11T06:38:24;101733.66;;;-7.29;95.33
19510;BME280;9896;42.486;26.506;2023-02-11T06:40:50;101736.03;;;-7.22;94.94
19510;BME280;9896;42.486;26.506;2023-02-11T06:43:16;101726.03;;;-6.83;94.08
19510;BME280;9896;42.486;26.506;2023-02-11T06:45:41;101727.41;;;-6.48;92.21
19510;BME280;9896;42.486;26.506;2023-02-11T06:48:07;101720.84;;;-6.10;92.92
19510;BME280;9896;42.486;26.506;2023-02-11T06:50:33;101730.03;;;-5.78;91.74
19510;BME280;9896;42.486;26.506;2023-02-11T06:52:59;101734.94;;;-5.69;89.91
19510;BME280;9896;42.486;26.506;2023-02-11T06:55:25;101733.06;;;-5.87;89.80
19510;BME280;9896;42.486;26.506;2023-02-11T06:57:50;101726.41;;;-5.74;89.22
19510;BME280;9896;42.486;26.506;2023-02-11T07:00:16;101718.53;;;-5.29;88.11
19510;BME280;9896;42.486;26.506;2023-02-11T07:02:42;101728.41;;;-5.36;87.53
19510;BME280;9896;42.486;26.506;2023-02-11T07:05:08;101728.91;;;-4.64;86.10
19510;BME280;9896;42.486;26.506;2023-02-11T07:07:33;101714.03;;;-4.84;85.09
19510;BME280;9896;42.486;26.506;2023-02-11T07:09:59;101723.84;;;-4.69;85.25
19510;BME280;9896;42.486;26.506;2023-02-11T07:12:25;101734.25;;;-4.87;85.34
19510;BME280;9896;42.486;26.506;2023-02-11T07:14:50;101733.28;;;-5.27;87.51
19510;BME280;9896;42.486;26.506;2023-02-11T07:17:17;101721.66;;;-4.57;87.88
19510;BME280;9896;42.486;26.506;2023-02-11T07:19:42;101718.28;;;-4.20;83.90
19510;BME280;9896;42.486;26.506;2023-02-11T07:22:08;101714.13;;;-4.06;83.26
19510;BME280;9896;42.486;26.506;2023-02-11T07:24:33;101725.44;;;-4.44;85.02
19510;BME280;9896;42.486;26.506;2023-02-11T07:26:59;101714.44;;;-4.32;86.13
19510;BME280;9896;42.486;26.506;2023-02-11T07:29:24;101712.06;;;-3.99;83.81
19510;BME280;9896;42.486;26.506;2023-02-11T07:31:50;101713.50;;;-3.92;85.82
19510;BME280;9896;42.486;26.506;2023-02-11T07:34:15;101717.53;;;-3.66;86.08
19510;BME280;9896;42.486;26.506;2023-02-11T07:36:41;101713.06;;;-3.10;81.72
19510;BME280;9896;42.486;26.506;2023-02-11T07:39:08;101708.97;;;-2.64;79.99
19510;BME280;9896;42.486;26.506;2023-02-11T07:41:33;101693.91;;;-2.43;78.14
19510;BME280;9896;42.486;26.506;2023-02-11T07:44:02;101699.56;;;-2.68;79.54
19510;BME280;9896;42.486;26.506;2023-02-11T07:46:27;101691.03;;;-2.39;78.08
19510;BME280;9896;42.486;26.506;2023-02-11T07:48:54;101711.94;;;-2.70;79.25
19510;BME280;9896;42.486;26.506;2023-02-11T07:51:25;101698.06;;;-2.39;77.63
19510;BME280;9896;42.486;26.506;2023-02-11T07:53:51;101696.00;;;-2.50;79.58
19510;BME280;9896;42.486;26.506;2023-02-11T07:56:18;101704.16;;;-2.39;78.05
19510;BME280;9896;42.486;26.506;2023-02-11T07:58:47;101700.28;;;-2.31;78.00
19510;BME280;9896;42.486;26.506;2023-02-11T08:01:16;101693.31;;;-2.00;77.33
19510;BME280;9896;42.486;26.506;2023-02-11T08:03:43;101699.03;;;-1.76;75.58
19510;BME280;9896;42.486;26.506;2023-02-11T08:06:14;101693.53;;;-1.71;76.51
19510;BME280;9896;42.486;26.506;2023-02-11T08:08:40;101690.84;;;-2.03;77.38
19510;BME280;9896;42.486;26.506;2023-02-11T08:11:14;101683.63;;;-2.15;78.05
19510;BME280;9896;42.486;26.506;2023-02-11T08:13:40;101694.47;;;-1.72;77.34
19510;BME280;9896;42.486;26.506;2023-02-11T08:16:06;101694.88;;;-1.49;76.34
19510;BME280;9896;42.486;26.506;2023-02-11T08:18:32;101691.38;;;-1.33;76.18
19510;BME280;9896;42.486;26.506;2023-02-11T08:21:08;101691.16;;;-1.45;74.44
19510;BME280;9896;42.486;26.506;2023-02-11T08:23:39;101694.00;;;-1.33;74.73
19510;BME280;9896;42.486;26.506;2023-02-11T08:26:08;101691.47;;;-1.19;75.20
19510;BME280;9896;42.486;26.506;2023-02-11T08:28:36;101695.28;;;-0.65;73.20
19510;BME280;9896;42.486;26.506;2023-02-11T08:31:16;101688.94;;;-0.91;74.26
19510;BME280;9896;42.486;26.506;2023-02-11T08:33:42;101690.16;;;-0.38;72.28
19510;BME280;9896;42.486;26.506;2023-02-11T08:36:19;101685.09;;;-0.13;69.36
19510;BME280;9896;42.486;26.506;2023-02-11T08:38:45;101682.25;;;-0.38;70.19
19510;BME280;9896;42.486;26.506;2023-02-11T08:41:12;101676.75;;;-0.64;71.29
19510;BME280;9896;42.486;26.506;2023-02-11T08:43:43;101673.97;;;-0.18;71.79
19510;BME280;9896;42.486;26.506;2023-02-11T08:46:14;101677.84;;;-0.10;69.78
19510;BME280;9896;42.486;26.506;2023-02-11T08:48:41;101678.25;;;0.25;68.74
19510;BME280;9896;42.486;26.506;2023-02-11T08:51:08;101673.59;;;-0.12;70.61
19510;BME280;9896;42.486;26.506;2023-02-11T08:53:35;101669.59;;;0.64;67.93
19510;BME280;9896;42.486;26.506;2023-02-11T08:56:01;101664.03;;;0.69;66.76
19510;BME280;9896;42.486;26.506;2023-02-11T08:58:27;101664.50;;;0.61;67.04
19510;BME280;9896;42.486;26.506;2023-02-11T09:00:52;101653.22;;;0.99;65.70
19510;BME280;9896;42.486;26.506;2023-02-11T09:03:18;101659.13;;;0.89;66.52
19510;BME280;9896;42.486;26.506;2023-02-11T09:05:45;101654.31;;;0.42;65.50
19510;BME280;9896;42.486;26.506;2023-02-11T09:08:12;101649.25;;;0.79;66.34
19510;BME280;9896;42.486;26.506;2023-02-11T09:10:38;101653.59;;;0.80;66.19
19510;BME280;9896;42.486;26.506;2023-02-11T09:13:04;101638.81;;;0.77;64.26
19510;BME280;9896;42.486;26.506;2023-02-11T09:15:30;101631.50;;;1.20;62.58
19510;BME280;9896;42.486;26.506;2023-02-11T09:17:56;101636.75;;;1.08;61.87
19510;BME280;9896;42.486;26.506;2023-02-11T09:20:22;101634.00;;;0.97;60.18
19510;BME280;9896;42.486;26.506;2023-02-11T09:22:47;101627.72;;;1.37;59.52
19510;BME280;9896;42.486;26.506;2023-02-11T09:25:13;101620.53;;;2.01;56.15
19510;BME280;9896;42.486;26.506;2023-02-11T09:27:38;101620.50;;;1.77;56.76
19510;BME280;9896;42.486;26.506;2023-02-11T09:30:04;101606.34;;;1.65;57.17
19510;BME280;9896;42.486;26.506;2023-02-11T09:32:30;101591.56;;;1.63;57.08
19510;BME280;9896;42.486;26.506;2023-02-11T09:34:55;101590.47;;;1.65;57.33
19510;BME280;9896;42.486;26.506;2023-02-11T09:37:21;101576.75;;;1.97;56.52
19510;BME280;9896;42.486;26.506;2023-02-11T09:39:47;101594.94;;;2.01;55.94
19510;BME280;9896;42.486;26.506;2023-02-11T09:44:59;101586.19;;;2.24;53.28
19510;BME280;9896;42.486;26.506;2023-02-11T09:47:34;101568.97;;;2.43;52.16
19510;BME280;9896;42.486;26.506;2023-02-11T09:50:11;101566.75;;;2.60;51.60
19510;BME280;9896;42.486;26.506;2023-02-11T09:52:44;101565.47;;;2.42;52.06
19510;BME280;9896;42.486;26.506;2023-02-11T09:55:24;101564.72;;;2.64;51.76
19510;BME280;9896;42.486;26.506;2023-02-11T09:57:50;101554.59;;;2.93;50.64
19510;BME280;9896;42.486;26.506;2023-02-11T10:08:29;101537.34;;;2.87;51.03
19510;BME280;9896;42.486;26.506;2023-02-11T10:19:16;101524.28;;;3.30;44.80
19510;BME280;9896;42.486;26.506;2023-02-11T10:22:14;101521.84;;;3.27;45.55
19510;BME280;9896;42.486;26.506;2023-02-11T10:24:40;101520.41;;;3.56;44.58
19510;BME280;9896;42.486;26.506;2023-02-11T10:27:16;101509.22;;;3.42;44.81
19510;BME280;9896;42.486;26.506;2023-02-11T10:29:53;101494.47;;;3.60;45.15
19510;BME280;9896;42.486;26.506;2023-02-11T10:35:01;101495.56;;;3.68;44.11
19510;BME280;9896;42.486;26.506;2023-02-11T10:37:27;101490.44;;;3.99;44.08
19510;BME280;9896;42.486;26.506;2023-02-11T10:39:52;101485.88;;;3.90;43.44
19510;BME280;9896;42.486;26.506;2023-02-11T10:42:18;101475.94;;;4.03;43.30
19510;BME280;9896;42.486;26.506;2023-02-11T10:44:58;101462.47;;;4.47;41.94
19510;BME280;9896;42.486;26.506;2023-02-11T10:47:28;101474.72;;;4.80;41.15
19510;BME280;9896;42.486;26.506;2023-02-11T10:49:55;101458.69;;;4.71;40.53
19510;BME280;9896;42.486;26.506;2023-02-11T10:52:27;101456.44;;;4.66;41.02
19510;BME280;9896;42.486;26.506;2023-02-11T10:57:40;101443.88;;;4.98;39.96
19510;BME280;9896;42.486;26.506;2023-02-11T11:00:34;101441.72;;;4.83;40.08
19510;BME280;9896;42.486;26.506;2023-02-11T11:03:02;101444.31;;;4.73;40.57
19510;BME280;9896;42.486;26.506;2023-02-11T11:05:31;101436.75;;;4.99;38.93
19510;BME280;9896;42.486;26.506;2023-02-11T11:08:01;101431.84;;;5.34;38.29
19510;BME280;9896;42.486;26.506;2023-02-11T11:11:03;101428.53;;;5.51;37.46
19510;BME280;9896;42.486;26.506;2023-02-11T11:13:30;101437.16;;;5.25;38.42
19510;BME280;9896;42.486;26.506;2023-02-11T11:18:38;101411.47;;;5.54;37.90
19510;BME280;9896;42.486;26.506;2023-02-11T11:23:38;101408.28;;;5.79;36.79
19510;BME280;9896;42.486;26.506;2023-02-11T11:26:12;101407.91;;;6.22;36.47
19510;BME280;9896;42.486;26.506;2023-02-11T11:28:59;101400.22;;;6.19;35.51
19510;BME280;9896;42.486;26.506;2023-02-11T11:34:58;101392.56;;;5.67;35.90
19510;BME280;9896;42.486;26.506;2023-02-11T11:37:29;101396.94;;;5.77;34.93
19510;BME280;9896;42.486;26.506;2023-02-11T11:39:59;101384.75;;;5.84;34.44
19510;BME280;9896;42.486;26.506;2023-02-11T11:42:31;101376.38;;;5.98;34.82
19510;BME280;9896;42.486;26.506;2023-02-11T11:47:38;101372.47;;;6.02;34.68
19510;BME280;9896;42.486;26.506;2023-02-11T11:50:26;101359.16;;;6.02;35.17
19510;BME280;9896;42.486;26.506;2023-02-11T11:55:46;101349.31;;;6.69;34.83
19510;BME280;9896;42.486;26.506;2023-02-11T11:58:19;101340.75;;;7.02;33.52
19510;BME280;9896;42.486;26.506;2023-02-11T12:01:05;101351.63;;;6.91;32.38
19510;BME280;9896;42.486;26.506;2023-02-11T12:06:38;101330.63;;;6.78;33.80
19510;BME280;9896;42.486;26.506;2023-02-11T12:09:34;101331.50;;;6.69;33.27
19510;BME280;9896;42.486;26.506;2023-02-11T12:12:11;101315.03;;;6.83;33.15
19510;BME280;9896;42.486;26.506;2023-02-11T12:25:26;101308.88;;;6.46;33.48
19510;BME280;9896;42.486;26.506;2023-02-11T12:34:03;101302.47;;;6.93;32.20
19510;BME280;9896;42.486;26.506;2023-02-11T12:48:47;101284.19;;;7.61;31.41
19510;BME280;9896;42.486;26.506;2023-02-11T12:56:36;101270.81;;;6.81;31.55
19510;BME280;9896;42.486;26.506;2023-02-11T12:59:12;101267.84;;;7.46;30.91
19510;BME280;9896;42.486;26.506;2023-02-11T13:01:42;101271.13;;;7.58;30.50
19510;BME280;9896;42.486;26.506;2023-02-11T13:04:28;101267.09;;;7.36;31.96
19510;BME280;9896;42.486;26.506;2023-02-11T13:07:00;101264.28;;;7.38;31.49
19510;BME280;9896;42.486;26.506;2023-02-11T13:09:34;101260.72;;;7.29;31.42
19510;BME280;9896;42.486;26.506;2023-02-11T13:12:05;101255.66;;;7.44;30.27
19510;BME280;9896;42.486;26.506;2023-02-11T13:14:51;101253.22;;;7.51;30.69
19510;BME280;9896;42.486;26.506;2023-02-11T13:17:26;101252.94;;;7.54;30.11
19510;BME280;9896;42.486;26.506;2023-02-11T13:20:00;101253.06;;;7.95;30.26
19510;BME280;9896;42.486;26.506;2023-02-11T13:22:37;101242.72;;;7.75;29.99
19510;BME280;9896;42.486;26.506;2023-02-11T13:27:52;101245.53;;;7.91;29.77
19510;BME280;9896;42.486;26.506;2023-02-11T13:35:34;101242.56;;;8.46;29.05
19510;BME280;9896;42.486;26.506;2023-02-11T13:38:19;101237.00;;;7.87;29.84
19510;BME280;9896;42.486;26.506;2023-02-11T13:41:05;101249.50;;;7.61;30.16
19510;BME280;9896;42.486;26.506;2023-02-11T13:43:33;101242.09;;;7.55;30.44
19510;BME280;9896;42.486;26.506;2023-02-11T13:46:20;101231.09;;;7.58;31.13
19510;BME280;9896;42.486;26.506;2023-02-11T13:48:50;101222.75;;;8.05;29.47
19510;BME280;9896;42.486;26.506;2023-02-11T13:51:35;101217.47;;;7.87;29.88
19510;BME280;9896;42.486;26.506;2023-02-11T13:54:03;101213.78;;;7.88;29.90
19510;BME280;9896;42.486;26.506;2023-02-11T13:56:32;101213.13;;;7.86;30.13
19510;BME280;9896;42.486;26.506;2023-02-11T13:59:01;101214.78;;;7.87;29.80
19510;BME280;9896;42.486;26.506;2023-02-11T14:04:32;101205.81;;;8.22;29.26
19510;BME280;9896;42.486;26.506;2023-02-11T14:13:26;101195.34;;;8.62;28.84
19510;BME280;9896;42.486;26.506;2023-02-11T14:16:10;101183.72;;;8.88;28.17
19510;BME280;9896;42.486;26.506;2023-02-11T14:21:23;101186.72;;;8.09;29.36
19510;BME280;9896;42.486;26.506;2023-02-11T14:37:58;101181.22;;;9.10;27.67
19510;BME280;9896;42.486;26.506;2023-02-11T14:40:34;101180.69;;;8.32;28.96
19510;BME280;9896;42.486;26.506;2023-02-11T14:43:27;101176.28;;;8.65;28.46
19510;BME280;9896;42.486;26.506;2023-02-11T14:45:56;101170.00;;;8.82;28.18
19510;BME280;9896;42.486;26.506;2023-02-11T14:48:44;101180.03;;;8.97;28.00
19510;BME280;9896;42.486;26.506;2023-02-11T14:51:31;101172.97;;;8.71;28.05
19510;BME280;9896;42.486;26.506;2023-02-11T14:54:03;101179.91;;;8.48;28.41
19510;BME280;9896;42.486;26.506;2023-02-11T14:56:35;101170.59;;;8.60;28.72
19510;BME280;9896;42.486;26.506;2023-02-11T14:59:01;101172.69;;;8.40;29.32
19510;BME280;9896;42.486;26.506;2023-02-11T15:01:35;101162.31;;;8.29;29.23
19510;BME280;9896;42.486;26.506;2023-02-11T15:04:22;101171.47;;;8.27;29.63
19510;BME280;9896;42.486;26.506;2023-02-11T15:06:48;101165.88;;;8.12;30.01
19510;BME280;9896;42.486;26.506;2023-02-11T15:09:32;101171.72;;;8.16;29.66
19510;BME280;9896;42.486;26.506;2023-02-11T15:11:59;101170.84;;;8.33;29.10
19510;BME280;9896;42.486;26.506;2023-02-11T15:14:31;101159.19;;;8.16;29.60
19510;BME280;9896;42.486;26.506;2023-02-11T15:17:02;101149.78;;;8.04;29.48
19510;BME280;9896;42.486;26.506;2023-02-11T15:19:33;101151.63;;;7.70;30.13
19510;BME280;9896;42.486;26.506;2023-02-11T15:22:03;101165.66;;;7.54;30.61
19510;BME280;9896;42.486;26.506;2023-02-11T15:24:32;101160.41;;;7.19;31.40
19510;BME280;9896;42.486;26.506;2023-02-11T15:27:09;101166.09;;;6.71;31.90
19510;BME280;9896;42.486;26.506;2023-02-11T15:29:43;101163.50;;;6.61;32.65
19510;BME280;9896;42.486;26.506;2023-02-11T15:32:13;101162.19;;;6.47;32.67
19510;BME280;9896;42.486;26.506;2023-02-11T15:34:40;101153.63;;;6.44;32.78
19510;BME280;9896;42.486;26.506;2023-02-11T15:37:06;101152.47;;;6.56;32.65